Strona główna
METAR-TAF:

METAR-TAF

Lotnisko :

Port lotniczy Cam Ranh

Cam Ranh, Wietnam

Szerokość geograficzna: 11-59-53N, Długość geograficzna: 109-13-10E, wysokość: 12 m

Aktualna obserwacja pogody

Raport powstał 29 minut temu, godzina 16:30 UTC
Wiatr 2 kt od zachodnio-południowy zachód
Temperatura 31°C
Wilgotność 71%
Ciśnienie 1011 hPa
Widzialność 10 km lub więcej
Mało chmury na wysokości 1500 ft

METAR: VVCR 171630Z 25002KT 9999 FEW015 31/25 Q1011 NOSIG

czas: 23:59 (16:59 UTC)

Prognoza

Raport powstał 5 godziny i 59 minut temu, godzina 11:00 UTC
Prognoza ważna od 17 godzina 12 UTC do 18 godzina 12 UTC
Wiatr 5 kt od zachodnio-północny zachód
Widzialność 10 km lub więcej
Mało chmury na wysokości 1500 ft
Stopniowe zmiany
od 18 godzina 03 UTC do 18 godzina 04 UTC
Wiatr 12 kt od południowy wschód

TAF: VVCR 171100Z 1712/1812 30005KT 9999 FEW015 BECMG 1803/1804 14012KT

Obserwacja i prognoza pogody dla ponad 4000 lotnisk (raport METAR i TAF).

Dostępne stacje oznaczono żółtymi i czerwonymi punktami na mapie.

Najedź kursorem aby zobaczyć nazwę stacji.

Kliknij aby zobaczyć obserwacje i prognozy pogody.

Aby zmienić mapę: kliknij na zielony przycisk z czarnym krzyżykiem, aby powiększyć; na zielony przycisk z myślnikiem, aby pomniejszyć; na zielone strzałki, aby przejść do map sąsiednich.


METAR-TAF: